Time;durP1;ratioP1;P1;durP2;ratioP2;P2;SDS_P1;SDS_P2;PMS_P1;PMS_P2;Temp;Humidity;BMP_temperature;BMP_pressure;BME280_temperature;BME280_humidity;BME280_pressure;Samples;Min_cycle;Max_cycle;Signal;HPM_P1;HPM_P2
2022/05/24 00:00:27;;;;;;;5.03;2.22;;;;;;;18.16;82.15;97869.13;5034763;28;20212;-58
2022/05/24 00:02:54;;;;;;;4.85;1.92;;;;;;;17.53;86.63;97868.13;5047327;28;20187;-59
2022/05/24 00:05:21;;;;;;;2.67;2.03;;;;;;;16.95;91.35;97856.81;5044762;28;20222;-59
2022/05/24 00:07:46;;;;;;;2.75;1.73;;;;;;;16.53;95.53;97866.41;5039645;28;20197;-58
2022/05/24 00:10:19;;;;;;;4.40;2.20;;;;;;;16.18;99.87;97858.66;5038380;28;20654;-59
2022/05/24 00:12:45;;;;;;;3.03;2.10;;;;;;;16.58;96.53;97856.34;5040880;28;20169;-58
2022/05/24 00:15:19;;;;;;;4.20;1.90;;;;;;;16.66;95.17;97866.81;5039770;28;20566;-58
2022/05/24 00:17:54;;;;;;;5.53;2.55;;;;;;;16.41;97.48;97872.88;5042485;28;20169;-58
2022/05/24 00:20:23;;;;;;;2.55;2.10;;;;;;;16.70;95.59;97868.16;5030763;28;20247;-58
2022/05/24 00:22:48;;;;;;;4.88;2.55;;;;;;;17.00;92.65;97873.69;5028970;28;20182;-58
2022/05/24 00:25:14;;;;;;;3.50;2.20;;;;;;;17.12;91.33;97879.41;5042428;28;20235;-58
2022/05/24 00:27:40;;;;;;;3.10;2.30;;;;;;;17.17;90.36;97861.47;5039494;28;20677;-59
2022/05/24 00:30:06;;;;;;;3.83;1.80;;;;;;;16.97;92.26;97876.59;5037670;28;20211;-59
2022/05/24 00:32:31;;;;;;;2.58;2.38;;;;;;;16.72;94.68;97882.69;5039012;28;20622;-58
2022/05/24 00:34:57;;;;;;;4.72;2.45;;;;;;;16.75;94.94;97877.16;5043040;28;20239;-59
2022/05/24 00:37:24;;;;;;;2.13;1.90;;;;;;;17.07;92.74;97886.91;5044565;28;20220;-59
2022/05/24 00:39:50;;;;;;;4.30;2.17;;;;;;;17.29;90.63;97892.41;5032135;28;20190;-58
2022/05/24 00:42:21;;;;;;;5.22;2.85;;;;;;;17.20;90.60;97884.69;5038825;28;20631;-58
2022/05/24 00:44:53;;;;;;;2.58;2.30;;;;;;;17.20;90.91;97882.88;5039412;28;20180;-58
2022/05/24 00:47:29;;;;;;;2.70;2.30;;;;;;;17.44;89.08;97890.03;5041590;28;20257;-58
2022/05/24 00:50:03;;;;;;;3.15;2.15;;;;;;;17.60;87.86;97887.44;5040220;28;20811;-58
2022/05/24 00:52:39;;;;;;;3.92;2.28;;;;;;;17.63;87.36;97885.31;5037570;28;20173;-58
2022/05/24 00:55:08;;;;;;;2.53;2.00;;;;;;;17.76;86.78;97877.81;5040807;28;20254;-58
2022/05/24 00:57:44;;;;;;;3.38;2.00;;;;;;;17.47;87.91;97863.53;5039618;28;20222;-58
2022/05/24 01:00:13;;;;;;;2.42;2.22;;;;;;;17.62;87.43;97875.00;5039824;28;20195;-58
2022/05/24 01:02:41;;;;;;;5.80;2.58;;;;;;;17.34;88.84;97874.44;5040780;28;20180;-59
2022/05/24 01:05:09;;;;;;;3.70;2.30;;;;;;;16.88;93.53;97879.31;5042989;28;20188;-58
2022/05/24 01:07:36;;;;;;;5.85;2.40;;;;;;;16.61;96.65;97879.53;5037605;28;20200;-58
2022/05/24 01:10:29;;;;;;;2.85;2.15;;;;;;;16.72;96.29;97881.84;5035466;28;20254;-60
2022/05/24 01:13:03;;;;;;;2.80;2.20;;;;;;;16.92;93.93;97865.78;5017582;28;20261;-59
2022/05/24 01:15:29;;;;;;;2.65;2.47;;;;;;;16.64;96.28;97864.38;5018976;28;20667;-58
2022/05/24 01:17:56;;;;;;;3.05;1.88;;;;;;;16.45;98.86;97869.00;5038554;28;20235;-58
2022/05/24 01:20:22;;;;;;;5.05;2.83;;;;;;;16.26;99.79;97853.53;5040322;28;20286;-58
2022/05/24 01:23:11;;;;;;;4.15;2.42;;;;;;;16.27;99.87;97862.97;5039556;28;20265;-58
2022/05/24 01:26:11;;;;;;;4.90;2.90;;;;;;;15.88;100.00;97854.72;5040372;28;20238;-58
2022/05/24 01:28:50;;;;;;;2.40;2.20;;;;;;;15.86;100.00;97856.63;5032176;28;20204;-58
2022/05/24 01:31:17;;;;;;;4.13;2.22;;;;;;;15.95;100.00;97858.34;5036425;28;20195;-58
2022/05/24 01:36:31;;;;;;;6.03;3.05;;;;;;;15.96;100.00;97861.75;5038384;28;21286;-58
2022/05/24 01:39:02;;;;;;;3.72;2.58;;;;;;;15.98;100.00;97875.50;5036950;28;20272;-58
2022/05/24 01:41:43;;;;;;;4.45;2.78;;;;;;;15.53;100.00;97879.97;5040467;28;20594;-58
2022/05/24 01:44:10;;;;;;;3.53;2.53;;;;;;;15.29;100.00;97877.09;5037637;28;20191;-59
2022/05/24 01:46:46;;;;;;;4.97;2.80;;;;;;;15.29;100.00;97874.50;5039814;28;20694;-59
2022/05/24 01:49:18;;;;;;;5.90;2.70;;;;;;;15.32;100.00;97882.00;5046161;28;20735;-59
2022/05/24 01:52:02;;;;;;;2.75;2.50;;;;;;;15.48;100.00;97883.03;5030786;28;20265;-58
2022/05/24 01:54:30;;;;;;;4.03;2.92;;;;;;;15.66;100.00;97885.63;5035554;28;20189;-59
2022/05/24 01:57:09;;;;;;;4.30;2.53;;;;;;;15.76;100.00;97882.00;5037232;28;20217;-58
2022/05/24 01:59:37;;;;;;;2.78;2.50;;;;;;;15.48;100.00;97874.38;5035273;28;20178;-59
2022/05/24 02:02:03;;;;;;;4.03;2.42;;;;;;;15.32;100.00;97877.66;5030037;28;20273;-58
2022/05/24 02:04:32;;;;;;;7.15;2.70;;;;;;;15.01;100.00;97871.09;5033861;28;20189;-59
2022/05/24 02:07:25;;;;;;;3.30;2.63;;;;;;;15.02;100.00;97866.69;5029693;28;20178;-58
2022/05/24 02:09:54;;;;;;;4.55;2.55;;;;;;;15.24;100.00;97874.94;5035099;28;20227;-58
2022/05/24 02:12:42;;;;;;;3.72;2.47;;;;;;;15.41;100.00;97873.34;5032150;28;20581;-58
2022/05/24 02:15:10;;;;;;;4.53;2.83;;;;;;;15.61;100.00;97886.09;5036779;28;20351;-59
2022/05/24 02:17:44;;;;;;;3.03;2.67;;;;;;;15.76;100.00;97886.38;5036808;28;20249;-59
2022/05/24 02:20:13;;;;;;;4.45;2.53;;;;;;;15.68;100.00;97875.91;5042507;28;20768;-58
2022/05/24 02:22:40;;;;;;;3.70;2.58;;;;;;;15.79;100.00;97886.91;5039533;28;20275;-58
2022/05/24 02:25:22;;;;;;;5.75;3.08;;;;;;;15.85;100.00;97896.75;5034512;28;20189;-58
2022/05/24 02:27:49;;;;;;;4.30;2.60;;;;;;;15.92;100.00;97896.97;5036340;28;20669;-58
2022/05/24 02:30:19;;;;;;;3.65;2.72;;;;;;;15.88;100.00;97896.47;5036643;28;20575;-58
2022/05/24 02:32:45;;;;;;;5.40;2.97;;;;;;;15.97;100.00;97897.34;5037817;28;20193;-59
2022/05/24 02:35:10;;;;;;;2.88;2.58;;;;;;;15.91;100.00;97892.72;5028305;28;20197;-58
2022/05/24 02:37:36;;;;;;;3.80;2.60;;;;;;;15.70;100.00;97897.41;5015131;28;20727;-59
2022/05/24 02:42:46;;;;;;;4.28;2.55;;;;;;;15.54;100.00;97892.88;5035513;28;20184;-59
2022/05/24 02:45:12;;;;;;;8.45;3.00;;;;;;;15.50;100.00;97890.69;5045130;28;20260;-58
2022/05/24 02:47:37;;;;;;;5.57;2.65;;;;;;;15.50;100.00;97901.13;5033015;28;20182;-58
2022/05/24 02:50:04;;;;;;;6.13;3.05;;;;;;;15.45;100.00;97895.56;5044578;28;20788;-59
2022/05/24 02:52:30;;;;;;;3.20;2.55;;;;;;;15.47;100.00;97904.88;5034467;28;20268;-58
2022/05/24 02:54:57;;;;;;;3.75;2.53;;;;;;;15.32;100.00;97908.94;5040816;28;20217;-58
2022/05/24 02:57:23;;;;;;;4.43;2.90;;;;;;;15.37;100.00;97911.94;5040169;28;20235;-59
2022/05/24 02:59:48;;;;;;;2.88;2.67;;;;;;;15.56;100.00;97909.19;5040964;28;20193;-59
2022/05/24 03:02:14;;;;;;;2.97;2.70;;;;;;;15.47;100.00;97915.31;5038580;28;21086;-59
2022/05/24 03:04:39;;;;;;;5.28;2.90;;;;;;;15.47;100.00;97911.88;5037426;28;20184;-58
2022/05/24 03:09:49;;;;;;;3.92;2.90;;;;;;;15.14;100.00;97909.81;5043427;28;20173;-58
2022/05/24 03:15:03;;;;;;;4.63;3.20;;;;;;;15.07;100.00;97916.59;5042918;28;20248;-59
2022/05/24 03:17:28;;;;;;;3.35;2.75;;;;;;;15.01;100.00;97912.78;5041821;28;20208;-58
2022/05/24 03:19:54;;;;;;;6.22;3.20;;;;;;;15.06;100.00;97925.38;5039235;28;20197;-59
2022/05/24 03:22:19;;;;;;;6.50;3.33;;;;;;;15.16;100.00;97919.13;5042111;28;20682;-58
2022/05/24 03:24:45;;;;;;;5.35;3.25;;;;;;;15.25;100.00;97923.50;5045467;28;20258;-58
2022/05/24 03:27:13;;;;;;;6.38;3.00;;;;;;;15.26;100.00;97930.34;5038171;28;20181;-58
2022/05/24 03:29:41;;;;;;;6.20;3.75;;;;;;;15.26;100.00;97929.50;5038139;28;20185;-58
2022/05/24 03:32:08;;;;;;;8.55;3.60;;;;;;;15.53;100.00;97932.97;5044395;28;20732;-58
2022/05/24 03:34:34;;;;;;;9.90;3.90;;;;;;;15.84;100.00;97934.25;5042904;28;20181;-59
2022/05/24 03:37:00;;;;;;;9.80;3.78;;;;;;;15.91;100.00;97926.66;5031991;28;20259;-59
2022/05/24 03:39:25;;;;;;;6.28;3.38;;;;;;;16.17;100.00;97932.72;5036242;28;20260;-59
2022/05/24 03:41:51;;;;;;;6.20;2.88;;;;;;;16.40;100.00;97933.91;5019935;28;20339;-59
2022/05/24 03:44:16;;;;;;;6.18;2.42;;;;;;;16.45;100.00;97937.69;5025263;28;20619;-58
2022/05/24 03:46:42;;;;;;;2.67;2.47;;;;;;;16.36;95.49;97927.31;5034714;28;20182;-59
2022/05/24 03:49:08;;;;;;;5.20;2.22;;;;;;;16.18;94.29;97861.28;5037799;28;20208;-58
2022/05/24 03:51:34;;;;;;;2.25;2.15;;;;;;;16.84;88.91;97923.25;5032957;28;20667;-59
2022/05/24 03:53:59;;;;;;;3.85;2.13;;;;;;;16.92;85.79;97927.72;5037593;28;20189;-58
2022/05/24 03:56:25;;;;;;;3.22;2.13;;;;;;;16.72;84.81;97940.16;5031715;28;20272;-58
2022/05/24 03:58:50;;;;;;;4.15;2.40;;;;;;;16.26;85.38;97862.16;5029030;28;20220;-59
2022/05/24 04:01:16;;;;;;;2.22;2.03;;;;;;;16.83;85.66;97931.25;5018500;28;20594;-60
2022/05/24 04:03:41;;;;;;;2.35;2.13;;;;;;;16.68;85.42;97923.16;5020184;28;20218;-60
2022/05/24 04:06:08;;;;;;;2.03;1.85;;;;;;;16.87;84.50;97930.78;5031150;28;20568;-59
2022/05/24 04:08:34;;;;;;;3.40;2.15;;;;;;;17.01;83.68;97937.22;5047161;28;20185;-59
2022/05/24 04:11:10;;;;;;;4.78;2.33;;;;;;;17.09;84.99;97937.25;5045382;28;20238;-59
2022/05/24 04:13:37;;;;;;;6.22;3.47;;;;;;;17.03;84.82;97938.69;5035646;28;20200;-59
2022/05/24 04:16:04;;;;;;;5.30;3.25;;;;;;;17.10;85.09;97944.97;5029294;28;20247;-59
2022/05/24 04:18:29;;;;;;;3.22;2.08;;;;;;;17.09;84.07;97938.06;5038123;28;20197;-60
2022/05/24 04:20:55;;;;;;;2.22;2.13;;;;;;;17.23;83.59;97954.97;5021323;28;20218;-59
2022/05/24 04:23:21;;;;;;;5.00;2.67;;;;;;;17.31;83.23;97955.00;5019252;28;20181;-60
2022/05/24 04:25:47;;;;;;;2.63;2.42;;;;;;;17.36;82.95;97955.34;5022863;28;20185;-59
2022/05/24 04:28:14;;;;;;;3.30;2.20;;;;;;;17.44;82.41;97963.25;5041440;28;20177;-59
2022/05/24 04:30:40;;;;;;;2.28;2.08;;;;;;;17.30;81.61;97958.56;5047564;28;20185;-59
2022/05/24 04:33:05;;;;;;;3.55;2.10;;;;;;;17.33;79.35;97960.91;5046947;28;20181;-59
2022/05/24 04:35:31;;;;;;;3.22;2.00;;;;;;;17.45;78.05;97959.66;5032841;28;20178;-59
2022/05/24 04:37:56;;;;;;;4.35;2.58;;;;;;;17.39;77.37;97961.13;5037544;28;20181;-59
2022/05/24 04:42:18;;;;;;;2.95;1.92;;;;;;;17.30;77.69;97955.97;5039680;28;20196;-59
2022/05/24 04:43:07;;;;;;;2.10;1.90;;;;;;;17.33;77.85;97953.88;5017189;28;20295;-60
2022/05/24 04:45:33;;;;;;;2.33;2.08;;;;;;;17.32;76.68;97954.03;5019535;28;20673;-59
2022/05/24 04:47:58;;;;;;;2.10;2.00;;;;;;;17.41;76.67;97948.69;5028334;28;20220;-59
2022/05/24 04:50:24;;;;;;;2.00;1.90;;;;;;;17.43;76.68;97948.53;5044938;28;20280;-59
2022/05/24 04:52:49;;;;;;;2.13;1.80;;;;;;;17.56;77.35;97962.00;5043422;28;20682;-59
2022/05/24 04:55:14;;;;;;;2.25;2.08;;;;;;;17.73;77.21;97940.13;5034859;28;20217;-59
2022/05/24 04:57:40;;;;;;;2.60;2.40;;;;;;;18.07;77.13;97956.53;5041747;28;20233;-59
2022/05/24 05:00:13;;;;;;;3.22;2.80;;;;;;;18.26;76.33;97956.22;5033181;28;20215;-59
2022/05/24 05:02:39;;;;;;;5.22;2.30;;;;;;;18.23;73.75;97948.66;5040189;28;20181;-59
2022/05/24 05:05:05;;;;;;;3.80;2.10;;;;;;;18.34;73.77;97950.97;5037754;28;20211;-59
2022/05/24 05:07:31;;;;;;;3.67;2.50;;;;;;;18.45;73.29;97940.19;5039379;28;20177;-59
2022/05/24 05:09:56;;;;;;;5.05;2.80;;;;;;;18.74;73.23;97961.44;5039710;28;20299;-59
2022/05/24 05:12:22;;;;;;;7.00;2.47;;;;;;;18.48;73.02;97961.63;5036955;28;20586;-60
2022/05/24 05:14:48;;;;;;;5.03;3.20;;;;;;;18.61;72.72;97966.38;5039136;28;20190;-59
2022/05/24 05:17:16;;;;;;;3.13;2.80;;;;;;;18.55;73.73;97978.34;5031127;28;20184;-59
2022/05/24 05:19:42;;;;;;;3.25;2.50;;;;;;;18.61;73.93;97974.22;5043105;28;20741;-59
2022/05/24 05:22:07;;;;;;;5.72;3.10;;;;;;;18.49;74.43;97973.72;5036251;28;20181;-59
2022/05/24 05:24:34;;;;;;;11.07;3.70;;;;;;;18.57;73.97;97970.28;5036638;28;20195;-59
2022/05/24 05:26:59;;;;;;;4.05;2.70;;;;;;;18.75;73.57;97976.16;5037633;28;20702;-60
2022/05/24 05:32:17;;;;;;;10.20;4.18;;;;;;;18.60;76.62;97976.03;5033221;28;20574;-59
2022/05/24 05:34:43;;;;;;;10.10;3.85;;;;;;;18.79;76.95;97990.59;5042830;28;20264;-59
2022/05/24 05:37:08;;;;;;;4.20;3.67;;;;;;;18.88;76.43;97979.13;5042356;28;21094;-59
2022/05/24 05:39:35;;;;;;;18.67;5.72;;;;;;;18.55;78.16;97977.50;5037627;28;20682;-59
2022/05/24 05:42:01;;;;;;;8.45;4.40;;;;;;;18.49;77.98;97959.84;5041599;28;20295;-60
2022/05/24 05:44:27;;;;;;;9.25;5.18;;;;;;;18.20;80.04;97959.47;5025009;28;20193;-59
2022/05/24 05:46:53;;;;;;;9.25;5.30;;;;;;;18.07;80.57;97967.00;5016950;28;20197;-59
2022/05/24 05:49:18;;;;;;;4.95;4.47;;;;;;;18.30;80.56;97962.75;5018236;28;20174;-59
2022/05/24 05:51:44;;;;;;;9.73;4.90;;;;;;;18.51;78.75;97966.53;5027643;28;20188;-59
2022/05/24 05:54:09;;;;;;;8.60;4.78;;;;;;;18.39;77.89;97972.28;5040568;28;20173;-59
2022/05/24 05:56:35;;;;;;;18.98;4.80;;;;;;;18.63;77.53;97974.88;5035359;28;20218;-60
2022/05/24 05:59:00;;;;;;;8.43;5.25;;;;;;;18.89;75.87;97981.53;5030090;28;20178;-59
2022/05/24 06:01:29;;;;;;;11.30;5.35;;;;;;;19.13;75.07;97983.31;5035631;28;20208;-59
2022/05/24 06:03:56;;;;;;;7.38;4.60;;;;;;;19.29;74.56;97985.91;5041141;28;20185;-59
2022/05/24 06:06:23;;;;;;;7.95;4.35;;;;;;;19.32;74.87;97996.06;5037437;28;20215;-59
2022/05/24 06:08:49;;;;;;;7.20;5.07;;;;;;;19.38;74.29;98004.06;5037294;28;20181;-60
2022/05/24 06:11:15;;;;;;;13.98;5.35;;;;;;;19.19;75.56;98003.63;5040306;28;20541;-59
2022/05/24 06:13:41;;;;;;;10.70;5.13;;;;;;;19.19;74.79;97993.97;5042804;28;20210;-60
2022/05/24 06:16:06;;;;;;;10.88;5.38;;;;;;;18.96;75.55;97997.44;5039050;28;20281;-60
2022/05/24 06:18:32;;;;;;;9.60;5.03;;;;;;;18.99;75.85;98002.34;5041013;28;20646;-59
2022/05/24 06:20:58;;;;;;;7.68;4.50;;;;;;;19.12;74.45;97997.41;5031193;28;20210;-59
2022/05/24 06:23:24;;;;;;;6.07;5.22;;;;;;;19.35;73.89;98001.78;5030933;28;20180;-59
2022/05/24 06:25:51;;;;;;;7.25;4.68;;;;;;;19.43;72.35;97995.69;5038472;28;20185;-59
2022/05/24 06:28:18;;;;;;;7.40;4.13;;;;;;;19.39;72.33;97999.63;5035059;28;20585;-60
2022/05/24 06:30:44;;;;;;;9.40;4.18;;;;;;;19.17;73.88;98010.84;5036999;28;20680;-60
2022/05/24 06:33:11;;;;;;;7.65;4.35;;;;;;;19.09;74.57;98010.84;5036845;28;20182;-59
2022/05/24 06:35:38;;;;;;;4.50;4.10;;;;;;;18.86;75.48;98004.66;5036091;28;20220;-59
2022/05/24 06:38:03;;;;;;;6.32;4.38;;;;;;;18.97;75.77;97996.44;5035896;28;20197;-59
2022/05/24 06:40:29;;;;;;;7.40;4.03;;;;;;;19.05;75.04;98002.50;5035322;28;20209;-59
2022/05/24 06:42:55;;;;;;;6.30;4.72;;;;;;;19.02;74.66;97999.41;5041298;28;20741;-59
2022/05/24 06:45:20;;;;;;;5.78;3.90;;;;;;;18.96;75.47;98007.94;5038689;28;20193;-60
2022/05/24 06:47:46;;;;;;;5.68;3.72;;;;;;;18.88;76.28;98005.34;5034072;28;20845;-60
2022/05/24 06:50:13;;;;;;;4.93;3.50;;;;;;;19.15;74.93;98008.38;5035668;28;20895;-60
2022/05/24 06:52:39;;;;;;;4.47;3.42;;;;;;;19.32;74.56;98009.19;5037912;28;20192;-60
2022/05/24 06:55:06;;;;;;;11.15;4.13;;;;;;;19.50;73.68;98015.84;5041028;28;20182;-60
2022/05/24 06:57:32;;;;;;;3.65;3.35;;;;;;;19.72;72.05;98016.88;5035051;28;20228;-59
2022/05/24 07:02:42;;;;;;;4.00;3.63;;;;;;;19.92;70.24;98002.34;5033080;28;20235;-60
2022/05/24 07:05:16;;;;;;;5.82;3.55;;;;;;;19.86;71.41;98018.78;5035379;28;20624;-60
2022/05/24 07:07:42;;;;;;;4.18;3.30;;;;;;;19.77;70.72;98017.19;5034599;28;20694;-61
2022/05/24 07:10:10;;;;;;;9.50;4.00;;;;;;;19.75;70.67;98021.81;5036171;28;20211;-60
2022/05/24 07:12:36;;;;;;;7.60;4.05;;;;;;;19.59;71.45;98016.63;5036765;28;20197;-58
2022/05/24 07:15:02;;;;;;;6.93;4.15;;;;;;;19.29;73.61;98015.56;5040338;28;20199;-59
2022/05/24 07:17:27;;;;;;;8.68;4.38;;;;;;;19.40;73.70;98011.78;5027383;28;20247;-59
2022/05/24 07:19:53;;;;;;;4.75;3.65;;;;;;;19.30;74.02;98011.16;5043062;28;20680;-60
2022/05/24 07:22:19;;;;;;;5.00;3.88;;;;;;;19.54;73.53;98008.44;5046170;28;20673;-60
2022/05/24 07:24:48;;;;;;;6.78;3.90;;;;;;;19.78;72.50;98010.94;5043633;28;20685;-60
2022/05/24 07:27:15;;;;;;;10.00;4.22;;;;;;;19.78;71.58;98016.19;5044119;28;20196;-60
2022/05/24 07:29:41;;;;;;;6.20;4.03;;;;;;;19.96;70.94;98020.22;5046416;28;20181;-60
2022/05/24 07:32:07;;;;;;;8.68;4.45;;;;;;;20.26;69.13;98021.19;5039078;28;20193;-61
2022/05/24 07:34:34;;;;;;;6.47;4.03;;;;;;;20.38;68.14;98019.78;5040782;28;20220;-60
2022/05/24 07:37:01;;;;;;;4.43;3.60;;;;;;;20.52;68.44;98011.16;5048455;28;20181;-60
2022/05/24 07:39:27;;;;;;;5.82;3.50;;;;;;;20.59;67.80;98012.09;5038252;28;20678;-60
2022/05/24 07:47:15;;;;;;;7.53;4.00;;;;;;;20.30;68.02;97998.84;5033568;28;20176;-60
2022/05/24 07:49:41;;;;;;;5.78;3.88;;;;;;;20.57;67.36;98011.44;5044127;28;20988;-61
2022/05/24 07:52:06;;;;;;;7.55;4.10;;;;;;;20.68;67.66;97998.69;5037794;28;20198;-61
2022/05/24 07:54:33;;;;;;;6.65;3.97;;;;;;;20.60;67.65;97992.69;5038991;28;20193;-61
2022/05/24 07:56:58;;;;;;;7.38;4.28;;;;;;;20.77;67.41;97994.16;5044197;28;20717;-60
2022/05/24 07:59:24;;;;;;;7.32;4.38;;;;;;;20.92;67.09;97992.44;5036233;28;20196;-60
2022/05/24 08:01:50;;;;;;;8.88;4.20;;;;;;;20.96;65.51;97998.94;5047631;28;20205;-60
2022/05/24 08:04:16;;;;;;;11.82;3.90;;;;;;;20.99;65.83;97991.50;5034958;28;20186;-61
2022/05/24 08:06:41;;;;;;;8.48;3.80;;;;;;;20.90;66.03;97999.66;5039366;28;20668;-60
2022/05/24 08:09:06;;;;;;;7.65;4.10;;;;;;;20.75;66.76;97994.34;5036641;28;20244;-60
2022/05/24 08:11:32;;;;;;;5.43;3.78;;;;;;;20.56;68.30;97992.22;5027448;28;20267;-60
2022/05/24 08:14:02;;;;;;;10.77;3.63;;;;;;;20.32;68.95;97994.22;5017920;28;20185;-60
2022/05/24 08:16:32;;;;;;;4.70;4.25;;;;;;;20.38;69.83;97998.75;5020262;28;20182;-61
2022/05/24 08:18:58;;;;;;;9.77;4.43;;;;;;;20.28;69.71;97992.94;5034576;28;20675;-60
2022/05/24 08:21:26;;;;;;;7.03;4.65;;;;;;;20.68;68.65;98003.94;5042609;28;20208;-60
2022/05/24 08:23:52;;;;;;;9.88;4.40;;;;;;;20.78;67.49;98004.53;5044061;28;20188;-61
2022/05/24 08:26:18;;;;;;;5.95;4.47;;;;;;;20.84;67.42;97997.72;5035272;28;20185;-61
2022/05/24 08:28:43;;;;;;;9.63;4.25;;;;;;;21.15;65.81;97998.44;5047862;28;20216;-61
2022/05/24 08:31:10;;;;;;;6.53;4.10;;;;;;;21.45;64.47;97995.59;5035883;28;20192;-60
2022/05/24 08:33:36;;;;;;;5.60;4.30;;;;;;;21.56;63.85;97987.22;5027061;28;20201;-60
2022/05/24 08:36:02;;;;;;;9.15;4.68;;;;;;;21.76;63.84;97979.59;5018912;28;20295;-61
2022/05/24 08:38:28;;;;;;;4.93;3.88;;;;;;;21.96;62.69;97980.66;5022420;28;20327;-59
2022/05/24 08:41:00;;;;;;;5.13;3.58;;;;;;;22.14;62.00;97981.06;5036556;28;20765;-59
2022/05/24 08:43:35;;;;;;;6.78;3.88;;;;;;;22.31;60.44;97977.97;5036364;28;20196;-59
2022/05/24 08:49:10;;;;;;;8.23;4.10;;;;;;;22.08;62.06;97966.78;5035079;28;20375;-58
2022/05/24 08:51:41;;;;;;;3.90;3.60;;;;;;;22.37;61.26;97971.13;5046683;28;20185;-59
2022/05/24 08:54:09;;;;;;;5.97;4.07;;;;;;;22.36;61.51;97964.22;5034729;28;20184;-58
2022/05/24 08:56:55;;;;;;;7.07;4.15;;;;;;;21.97;62.22;97953.31;5037357;28;20219;-60
2022/05/24 08:59:35;;;;;;;5.13;3.63;;;;;;;21.89;62.14;97946.34;5040363;28;20188;-60
2022/05/24 09:02:01;;;;;;;8.48;4.35;;;;;;;21.73;63.59;97940.50;5037718;28;20228;-60
2022/05/24 09:04:29;;;;;;;6.82;4.70;;;;;;;21.78;64.08;97948.63;5042268;28;20212;-60
2022/05/24 09:07:03;;;;;;;7.35;4.20;;;;;;;21.71;64.23;97955.63;5044072;28;20220;-60
2022/05/24 09:09:37;;;;;;;16.25;8.20;;;;;;;21.81;63.57;97964.91;5028671;28;20181;-60
2022/05/24 09:12:39;;;;;;;6.05;4.28;;;;;;;21.98;64.20;97976.81;5042834;28;20172;-60
2022/05/24 09:18:40;;;;;;;7.85;4.13;;;;;;;22.07;63.51;97985.41;5017787;28;20209;-60
2022/05/24 09:21:06;;;;;;;6.95;4.70;;;;;;;22.25;62.59;97984.00;5025299;28;20201;-59
2022/05/24 09:23:39;;;;;;;8.15;4.15;;;;;;;22.02;63.39;97977.28;5029161;28;20193;-60
2022/05/24 09:26:10;;;;;;;9.68;4.88;;;;;;;22.03;63.63;97989.44;5036669;28;20659;-59
2022/05/24 09:28:59;;;;;;;8.45;4.30;;;;;;;22.02;62.25;97983.34;5034279;28;20252;-59
2022/05/24 09:31:43;;;;;;;5.10;3.85;;;;;;;22.23;62.28;97991.28;5037182;28;20598;-60
2022/05/24 09:34:36;;;;;;;5.03;3.75;;;;;;;22.24;61.72;97981.53;5037423;28;20274;-59
2022/05/24 09:37:26;;;;;;;6.28;3.50;;;;;;;22.25;61.51;97989.25;5020029;28;20201;-59
2022/05/24 09:40:17;;;;;;;6.82;4.00;;;;;;;22.25;61.25;97978.72;5017709;28;20210;-60
2022/05/24 09:42:43;;;;;;;5.70;3.58;;;;;;;22.47;60.84;97971.63;5030502;28;20176;-59
2022/05/24 09:45:15;;;;;;;10.75;4.20;;;;;;;22.55;60.66;97958.34;5041920;28;20199;-60
2022/05/24 09:47:43;;;;;;;6.05;4.03;;;;;;;22.76;60.76;97967.03;5033882;28;20261;-59
2022/05/24 09:50:14;;;;;;;5.68;3.95;;;;;;;22.68;61.37;97961.06;5038368;28;20181;-59
2022/05/24 09:52:41;;;;;;;14.23;4.03;;;;;;;22.46;60.90;97956.84;5042841;28;20204;-59
2022/05/24 09:55:07;;;;;;;10.90;3.95;;;;;;;22.55;60.02;97964.41;5042263;28;20189;-60
2022/05/24 09:57:33;;;;;;;6.95;4.80;;;;;;;22.55;60.04;97958.34;5027391;28;20656;-61
2022/05/24 10:00:09;;;;;;;8.35;4.03;;;;;;;;;;5017078;28;20185;-61
2022/05/24 10:02:38;;;;;;;8.05;4.38;;;;;;;22.77;59.82;97959.91;5020104;28;20209;-61
2022/05/24 10:05:19;;;;;;;5.53;3.80;;;;;;;22.76;59.36;97958.28;5031760;28;20196;-61
2022/05/24 10:08:15;;;;;;;7.18;3.65;;;;;;;23.18;59.13;97955.53;5036416;28;20173;-60
2022/05/24 10:10:44;;;;;;;8.18;4.28;;;;;;;23.60;57.67;97958.00;5034578;28;20181;-61
2022/05/24 10:13:16;;;;;;;10.50;4.05;;;;;;;23.91;55.40;97960.97;5039691;28;20243;-61
2022/05/24 10:15:47;;;;;;;5.25;3.60;;;;;;;24.03;55.13;97962.84;5044017;28;20176;-61
2022/05/24 10:19:21;;;;;;;5.03;3.80;;;;;;;24.24;52.87;97967.94;5039320;28;20613;-60
2022/05/24 10:22:00;;;;;;;7.38;4.35;;;;;;;23.92;54.39;97956.28;4974569;28;20230;-60
2022/05/24 10:24:28;;;;;;;4.10;3.47;;;;;;;23.52;55.03;97947.56;5033136;28;20197;-60
2022/05/24 10:27:04;;;;;;;6.55;3.70;;;;;;;23.46;55.71;97948.38;5041438;28;20650;-60
2022/05/24 10:29:52;;;;;;;6.05;3.92;;;;;;;23.59;55.81;97949.25;5044195;28;20177;-60
2022/05/24 10:38:23;;;;;;;8.45;3.50;;;;;;;23.61;56.05;97957.78;5041552;28;20708;-60
2022/05/24 10:41:12;;;;;;;5.28;3.80;;;;;;;23.56;55.37;97965.50;5034915;28;20218;-61
2022/05/24 10:43:55;;;;;;;5.60;3.50;;;;;;;23.81;54.16;97956.81;5037225;28;20211;-61
2022/05/24 10:46:30;;;;;;;6.30;3.45;;;;;;;24.26;52.58;97966.72;5037055;28;20174;-60
2022/05/24 10:49:15;;;;;;;9.38;3.40;;;;;;;24.45;51.42;97968.56;5036726;28;20177;-61
2022/05/24 10:51:48;;;;;;;6.82;3.20;;;;;;;24.86;50.69;97966.59;5036792;28;20195;-61
2022/05/24 10:54:27;;;;;;;5.25;4.05;;;;;;;25.27;48.28;97951.25;5035151;28;20268;-61
2022/05/24 10:56:58;;;;;;;4.90;3.30;;;;;;;25.49;47.85;97944.63;5036382;28;21077;-60
2022/05/24 10:59:39;;;;;;;7.43;3.35;;;;;;;24.93;48.72;97934.78;5043158;28;20212;-60
2022/05/24 11:02:14;;;;;;;5.75;3.33;;;;;;;25.09;48.81;97935.16;5038428;28;20826;-61
2022/05/24 11:04:51;;;;;;;5.75;3.05;;;;;;;25.44;48.78;97939.19;5040976;28;20181;-61
2022/05/24 11:07:19;;;;;;;6.57;3.33;;;;;;;25.62;47.19;97915.44;5039136;28;20659;-60
2022/05/24 11:09:57;;;;;;;5.32;2.92;;;;;;;25.62;46.59;97915.44;5041486;28;20192;-60
2022/05/24 11:12:30;;;;;;;7.22;3.20;;;;;;;25.76;46.70;97914.34;5039791;28;20732;-60
2022/05/24 11:15:32;;;;;;;5.22;3.15;;;;;;;25.72;45.25;97905.19;5034990;28;20192;-60
2022/05/24 11:18:01;;;;;;;5.18;3.10;;;;;;;25.71;45.42;97881.56;5038974;28;20290;-61
2022/05/24 11:20:37;;;;;;;7.97;3.58;;;;;;;25.47;45.26;97891.06;5039207;28;20217;-60
2022/05/24 11:23:21;;;;;;;7.80;2.97;;;;;;;25.92;45.02;97891.84;5018861;28;20177;-61
2022/05/24 11:26:04;;;;;;;5.75;2.75;;;;;;;26.19;44.17;97872.06;5021123;28;20178;-62
2022/05/24 11:28:33;;;;;;;5.93;3.03;;;;;;;26.33;44.49;97882.38;5039041;28;20182;-61
2022/05/24 11:31:21;;;;;;;4.78;2.95;;;;;;;26.27;43.06;97871.81;5040985;28;20181;-61
2022/05/24 11:33:48;;;;;;;3.75;2.78;;;;;;;26.55;42.85;97867.72;5040560;28;20384;-61
2022/05/24 11:36:36;;;;;;;3.15;2.70;;;;;;;26.12;48.18;97860.72;5036321;28;20670;-61
2022/05/24 11:39:23;;;;;;;3.83;3.15;;;;;;;26.27;48.53;97848.75;5043798;28;20671;-62
2022/05/24 11:41:48;;;;;;;4.57;3.00;;;;;;;26.43;46.76;97855.34;5039087;28;20197;-61
2022/05/24 11:44:34;;;;;;;5.32;3.35;;;;;;;26.51;46.53;97860.34;5038119;28;20246;-61
2022/05/24 11:47:00;;;;;;;3.20;2.90;;;;;;;26.47;48.59;97859.97;5040408;28;20195;-61
2022/05/24 11:49:27;;;;;;;6.22;3.53;;;;;;;26.60;48.35;97873.16;5048182;28;20662;-61
2022/05/24 11:51:54;;;;;;;8.85;3.42;;;;;;;26.87;47.58;97865.78;5047888;28;20191;-61
2022/05/24 11:54:21;;;;;;;7.05;3.38;;;;;;;26.79;48.37;97864.22;5038400;28;20188;-61
2022/05/24 11:57:01;;;;;;;5.68;3.53;;;;;;;26.70;49.67;97868.16;5042167;28;20609;-60
2022/05/24 11:59:47;;;;;;;5.82;2.88;;;;;;;26.78;49.67;97872.38;5041025;28;20650;-61
2022/05/24 12:07:54;;;;;;;8.77;3.63;;;;;;;26.87;50.23;97877.19;5034566;28;20185;-61
2022/05/24 12:08:31;;;;;;;5.72;2.80;;;;;;;27.20;49.64;97890.94;5020990;28;20180;-61
2022/05/24 12:11:05;;;;;;;4.85;3.10;;;;;;;27.45;48.60;97893.50;5029219;28;20255;-60
2022/05/24 12:13:56;;;;;;;6.03;3.38;;;;;;;27.38;48.40;97892.78;5031138;28;20196;-60
2022/05/24 12:17:00;;;;;;;9.52;3.28;;;;;;;26.87;50.36;97906.38;5033417;28;20267;-60
2022/05/24 12:19:38;;;;;;;5.18;3.40;;;;;;;26.93;50.46;97910.81;5030349;28;20201;-60
2022/05/24 12:22:10;;;;;;;8.25;3.45;;;;;;;26.67;50.82;97916.41;5045940;28;20209;-61
2022/05/24 12:24:35;;;;;;;7.28;3.30;;;;;;;27.18;50.18;97918.78;5029514;28;20190;-60